»·PEaware :: QFA6024A KBFI-PHNL

QFA6024A :: KBFI-PHNL

FLIGHT INFORMATION

Flight Status: Arrived
Operator:
Qantas Airways
More flights by this operator :: More flights under this callsign
Pilot: Josef Vermeulen (384)
Aircraft: BOEING 737-800
(B738)
More flights by this aircraft type
Origin: KBFI Boeing Field/King Co Intl
United States
Destination: PHNL Honolulu Intl
United States
More flights between these airports :: More routes between these airports
Route: SEA J70 ELMAA PQM SEDAR A331 ZIGIE MAGGI
File this flight plan on PilotEdge
Remarks: OPR / QANTASVIRTUAL.COM REG / VH-XZP PER / C NAV / RNP10 GPSRNAV
Altitude:
(Current/Filed)
40,000ft
Speed:
(Current/Filed)
450kts
Departed: 02-Dec-14 12:18 PM
Arrived: 02-Dec-14 05:18 PM
Distance/Time
Traveled:
2327nm/4:59
Distance/Time
To Go:
Arrived

Flight Plot

Page will automatically refresh every two minutes.


Map Options




Map Legend


Flown Route
Filed Route
Departure Airport
Arrival Airport
Navaid (VOR, NDB)
Fix

Horizontal Profiles

Position Reports

Time Latitude Longitude Heading Altitude Ground
Speed
02-Dec-14 12:07 47.537000 -122.311272 240 29ft 0kts
02-Dec-14 12:08 47.537000 -122.311272 240 29ft 0kts
02-Dec-14 12:09 47.537000 -122.311272 240 29ft 0kts
02-Dec-14 12:10 47.537000 -122.311272 240 29ft 0kts
02-Dec-14 12:11 47.536993 -122.311289 240 29ft 2kts
02-Dec-14 12:12 47.537612 -122.312791 329 29ft 8kts
02-Dec-14 12:13 47.539331 -122.313685 49 29ft 6kts
02-Dec-14 12:14 47.540128 -122.311115 126 29ft 7kts
02-Dec-14 12:15 47.517231 -122.291513 148 553ft 171kts
02-Dec-14 12:16 47.472096 -122.253770 161 3189ft 192kts
02-Dec-14 12:17 47.446231 -122.313685 261 5190ft 232kts
02-Dec-14 12:18 47.428181 -122.420040 253 7911ft 282kts
02-Dec-14 12:19 47.400995 -122.532724 250 10690ft 316kts
02-Dec-14 12:20 47.364923 -122.664184 248 12715ft 363kts
02-Dec-14 12:21 47.324738 -122.802920 247 15468ft 375kts
02-Dec-14 12:22 47.282934 -122.945570 246 18111ft 382kts
02-Dec-14 12:23 47.227579 -123.078635 235 20564ft 387kts
02-Dec-14 12:24 47.166980 -123.211319 237 22620ft 398kts
02-Dec-14 12:25 47.105926 -123.349723 237 24468ft 409kts
02-Dec-14 12:26 47.042973 -123.491144 237 25896ft 428kts
02-Dec-14 12:27 46.977405 -123.636494 236 27075ft 449kts
02-Dec-14 12:28 46.907280 -123.790639 236 28641ft 459kts
02-Dec-14 12:29 46.836296 -123.945910 235 30099ft 467kts
02-Dec-14 12:30 46.763418 -124.104561 234 31436ft 474kts
02-Dec-14 12:31 46.690722 -124.265494 235 32660ft 477kts
02-Dec-14 12:32 46.618161 -124.424665 236 33969ft 474kts
02-Dec-14 12:33 46.544429 -124.582509 235 35166ft 470kts
02-Dec-14 12:34 46.470902 -124.738332 233 36313ft 466kts
02-Dec-14 12:35 46.397376 -124.891881 232 37333ft 464kts
02-Dec-14 12:36 46.322732 -125.046313 233 37967ft 471kts
02-Dec-14 12:37 46.249276 -125.201778 233 38837ft 467kts
02-Dec-14 12:38 46.177205 -125.355366 233 39414ft 467kts
02-Dec-14 12:39 46.103572 -125.508393 233 39921ft 464kts
02-Dec-14 12:40 46.029861 -125.659919 232 40116ft 463kts
02-Dec-14 12:41 45.955671 -125.811793 232 40120ft 465kts
02-Dec-14 12:42 45.881022 -125.963940 232 40120ft 467kts
02-Dec-14 12:43 45.806099 -126.115908 232 40119ft 466kts
02-Dec-14 12:44 45.732525 -126.267696 232 40113ft 468kts
02-Dec-14 12:45 45.657439 -126.419481 230 40071ft 467kts
02-Dec-14 12:46 45.581886 -126.569705 229 40025ft 465kts
02-Dec-14 12:47 45.505884 -126.718677 226 40015ft 464kts
02-Dec-14 12:48 45.400676 -126.784365 155 40020ft 408kts
02-Dec-14 12:49 45.294190 -126.802278 225 40020ft 438kts
02-Dec-14 12:50 45.269136 -126.969848 262 40020ft 454kts
02-Dec-14 12:51 45.240234 -127.143907 243 40019ft 455kts
02-Dec-14 12:52 45.182157 -127.303111 235 40021ft 459kts
02-Dec-14 12:53 45.116108 -127.458373 234 40024ft 456kts
02-Dec-14 12:54 45.050505 -127.612534 235 40019ft 460kts
02-Dec-14 12:55 44.984392 -127.768845 235 40021ft 467kts
02-Dec-14 12:56 44.929158 -127.899127 235 40021ft 470kts
02-Dec-14 12:57 44.862061 -128.056561 235 40019ft 470kts
02-Dec-14 12:58 44.783757 -128.242103 236 40020ft 475kts
02-Dec-14 12:59 44.716902 -128.399760 235 39992ft 460kts
02-Dec-14 13:00 44.661818 -128.527015 235 39967ft 457kts
02-Dec-14 13:01 44.595080 -128.679733 236 39952ft 459kts
02-Dec-14 13:02 44.529731 -128.828826 236 39949ft 449kts
02-Dec-14 13:03 44.464416 -128.977065 235 39949ft 449kts
02-Dec-14 13:04 44.398006 -129.125179 235 39950ft 454kts
02-Dec-14 13:05 44.331668 -129.275738 235 39950ft 456kts
02-Dec-14 13:06 44.264845 -129.426498 235 39950ft 459kts
02-Dec-14 13:07 44.197287 -129.576889 235 39950ft 455kts
02-Dec-14 13:08 44.130737 -129.724018 235 39949ft 455kts
02-Dec-14 13:09 44.062968 -129.873068 235 39951ft 457kts
02-Dec-14 13:10 43.995506 -130.020821 235 39950ft 451kts
02-Dec-14 13:11 43.928362 -130.168179 235 39949ft 453kts
02-Dec-14 13:12 43.861765 -130.315992 235 39950ft 458kts
02-Dec-14 13:13 43.792666 -130.465944 235 39892ft 466kts
02-Dec-14 13:14 43.722838 -130.615685 235 39890ft 465kts
02-Dec-14 13:15 43.652720 -130.765263 235 39889ft 466kts
02-Dec-14 13:16 43.581664 -130.916119 235 39891ft 469kts
02-Dec-14 13:17 43.511080 -131.065304 235 39889ft 463kts
02-Dec-14 13:18 43.441040 -131.214730 235 39890ft 467kts
02-Dec-14 13:19 43.369746 -131.363868 234 39889ft 465kts
02-Dec-14 13:20 43.298584 -131.510987 234 39890ft 468kts
02-Dec-14 13:21 43.226892 -131.659225 235 39889ft 468kts
02-Dec-14 13:22 43.154335 -131.808762 235 39891ft 473kts
02-Dec-14 13:23 43.081507 -131.958099 235 39889ft 472kts
02-Dec-14 13:24 43.008398 -132.107238 234 39885ft 472kts
02-Dec-14 13:25 42.936175 -132.257123 235 39864ft 473kts
02-Dec-14 13:26 42.863691 -132.405440 235 39843ft 475kts
02-Dec-14 13:27 42.790147 -132.553274 235 39840ft 475kts
02-Dec-14 13:28 42.715745 -132.701835 235 39840ft 475kts
02-Dec-14 13:29 42.641442 -132.849624 235 39840ft 475kts
02-Dec-14 13:30 42.566790 -132.997443 235 39840ft 474kts
02-Dec-14 13:31 42.492164 -133.144956 235 39840ft 475kts
02-Dec-14 13:32 42.418639 -133.291913 234 39840ft 475kts
02-Dec-14 13:33 42.342939 -133.438189 234 39840ft 474kts
02-Dec-14 13:34 42.267314 -133.584138 234 39840ft 475kts
02-Dec-14 13:35 42.191655 -133.730300 234 39840ft 475kts
02-Dec-14 13:36 42.116189 -133.875511 234 39839ft 473kts
02-Dec-14 13:37 42.040453 -134.020460 234 39840ft 474kts
02-Dec-14 13:38 41.965344 -134.164442 234 39840ft 475kts
02-Dec-14 13:39 41.890308 -134.310011 233 39840ft 473kts
02-Dec-14 13:40 41.814519 -134.453908 233 39839ft 473kts
02-Dec-14 13:41 41.738069 -134.597272 233 39840ft 474kts
02-Dec-14 13:42 41.661372 -134.740481 233 39840ft 474kts
02-Dec-14 13:43 41.584320 -134.883807 234 39840ft 475kts
02-Dec-14 13:44 41.507652 -135.025786 234 39840ft 475kts
02-Dec-14 13:45 41.430711 -135.168357 233 39840ft 475kts
02-Dec-14 13:46 41.353265 -135.311027 233 39840ft 475kts
02-Dec-14 13:47 41.275480 -135.452876 233 39840ft 475kts
02-Dec-14 13:48 41.197730 -135.594103 232 39840ft 473kts
02-Dec-14 13:49 41.119927 -135.734872 232 39840ft 473kts
02-Dec-14 13:50 41.042839 -135.873719 233 39840ft 475kts
02-Dec-14 13:51 40.964396 -136.014371 233 39840ft 475kts
02-Dec-14 13:52 40.886088 -136.154867 233 39840ft 475kts
02-Dec-14 13:53 40.808903 -136.295264 232 39840ft 472kts
02-Dec-14 13:54 40.730524 -136.434874 232 39840ft 475kts
02-Dec-14 13:55 40.651590 -136.573711 232 39840ft 474kts
02-Dec-14 13:56 40.572910 -136.711515 232 39840ft 475kts
02-Dec-14 13:57 40.493399 -136.850285 232 39840ft 475kts
02-Dec-14 13:58 40.413767 -136.987969 232 39840ft 475kts
02-Dec-14 13:59 40.333157 -137.125256 231 39840ft 474kts
02-Dec-14 14:00 40.254468 -137.263384 232 39840ft 474kts
02-Dec-14 14:01 40.175043 -137.401141 232 39840ft 475kts
02-Dec-14 14:02 40.095459 -137.537058 231 39840ft 475kts
02-Dec-14 14:03 40.015134 -137.673455 231 39840ft 474kts
02-Dec-14 14:04 39.948255 -137.786668 232 39828ft 470kts
02-Dec-14 14:05 39.869407 -137.919677 232 39793ft 460kts
02-Dec-14 14:06 39.791619 -138.050351 232 39770ft 457kts
02-Dec-14 14:07 39.714273 -138.181178 232 39770ft 457kts
02-Dec-14 14:08 39.637700 -138.311419 232 39770ft 457kts
02-Dec-14 14:09 39.559755 -138.441293 231 39770ft 457kts
02-Dec-14 14:10 39.481418 -138.570582 231 39770ft 457kts
02-Dec-14 14:11 39.402333 -138.699614 231 39770ft 457kts
02-Dec-14 14:12 39.322984 -138.827672 231 39770ft 457kts
02-Dec-14 14:13 39.249213 -138.947735 231 39768ft 446kts
02-Dec-14 14:14 39.172306 -139.072890 230 39770ft 450kts
02-Dec-14 14:15 39.095914 -139.198659 231 39770ft 448kts
02-Dec-14 14:16 39.019385 -139.324424 230 39769ft 447kts
02-Dec-14 14:17 38.941796 -139.449472 230 39770ft 448kts
02-Dec-14 14:18 38.863857 -139.574110 230 39770ft 450kts
02-Dec-14 14:19 38.785731 -139.698645 230 39770ft 448kts
02-Dec-14 14:20 38.708315 -139.821647 230 39769ft 446kts
02-Dec-14 14:21 38.630444 -139.944887 230 39770ft 447kts
02-Dec-14 14:22 38.552111 -140.068380 230 39770ft 448kts
02-Dec-14 14:23 38.474292 -140.192396 230 39770ft 450kts
02-Dec-14 14:24 38.395467 -140.316874 228 39769ft 452kts
02-Dec-14 14:25 38.315488 -140.440180 229 39770ft 451kts
02-Dec-14 14:26 38.236509 -140.562371 229 39769ft 452kts
02-Dec-14 14:27 38.157479 -140.684648 229 39770ft 450kts
02-Dec-14 14:28 38.077963 -140.807231 229 39770ft 450kts
02-Dec-14 14:29 37.998186 -140.929706 229 39770ft 451kts
02-Dec-14 14:30 37.918229 -141.051998 229 39770ft 451kts
02-Dec-14 14:31 37.839015 -141.174023 229 39770ft 449kts
02-Dec-14 14:32 37.761082 -141.294868 229 39770ft 446kts
02-Dec-14 14:33 37.681639 -141.415569 229 39770ft 447kts
02-Dec-14 14:34 37.601934 -141.535554 229 39770ft 448kts
02-Dec-14 14:35 37.521928 -141.655601 228 39770ft 448kts
02-Dec-14 14:36 37.441824 -141.775399 228 39770ft 447kts
02-Dec-14 14:37 37.360909 -141.894084 228 39769ft 448kts
02-Dec-14 14:38 37.280622 -142.012338 228 39768ft 452kts
02-Dec-14 14:39 37.199146 -142.133177 228 39770ft 457kts
02-Dec-14 14:40 37.117792 -142.256131 228 39770ft 459kts
02-Dec-14 14:41 37.035631 -142.377977 228 39770ft 461kts
02-Dec-14 14:42 36.952223 -142.499972 228 39770ft 461kts
02-Dec-14 14:43 36.869006 -142.621185 228 39770ft 459kts
02-Dec-14 14:44 36.786658 -142.740816 228 39770ft 459kts
02-Dec-14 14:45 36.703225 -142.861611 228 39770ft 459kts
02-Dec-14 14:46 36.620210 -142.981374 228 39770ft 459kts
02-Dec-14 14:47 36.537039 -143.100925 227 39770ft 459kts
02-Dec-14 14:48 36.454309 -143.221946 228 39770ft 460kts
02-Dec-14 14:49 36.370431 -143.341645 227 39770ft 459kts
02-Dec-14 14:50 36.287111 -143.458937 227 39770ft 457kts
02-Dec-14 14:51 36.203206 -143.577591 227 39806ft 458kts
02-Dec-14 14:52 36.119264 -143.696181 226 39971ft 471kts
02-Dec-14 14:53 36.030933 -143.820551 228 40095ft 493kts
02-Dec-14 14:54 35.938796 -143.949760 228 40100ft 506kts
02-Dec-14 14:55 35.845483 -144.080015 227 40100ft 510kts
02-Dec-14 14:56 35.753191 -144.210448 227 40100ft 511kts
02-Dec-14 14:57 35.659631 -144.342195 227 40100ft 510kts
02-Dec-14 14:58 35.565556 -144.472025 226 40100ft 510kts
02-Dec-14 14:59 35.471016 -144.601694 227 40100ft 511kts
02-Dec-14 15:00 35.375961 -144.730593 225 40100ft 508kts
02-Dec-14 15:01 35.281034 -144.858820 227 40100ft 510kts
02-Dec-14 15:02 35.186984 -144.986912 229 40100ft 510kts
02-Dec-14 15:03 35.092097 -145.116027 227 40100ft 512kts
02-Dec-14 15:04 34.998121 -145.245637 226 40099ft 508kts
02-Dec-14 15:05 34.902975 -145.373195 227 40100ft 511kts
02-Dec-14 15:06 34.806887 -145.500190 227 40100ft 511kts
02-Dec-14 15:07 34.710538 -145.627291 227 40100ft 513kts
02-Dec-14 15:08 34.614761 -145.753406 227 40100ft 513kts
02-Dec-14 15:09 34.518164 -145.880153 228 40100ft 512kts
02-Dec-14 15:10 34.437409 -145.985690 227 40099ft 512kts
02-Dec-14 15:11 34.339874 -146.110833 225 40100ft 511kts
02-Dec-14 15:12 34.244189 -146.236761 225 40099ft 509kts
02-Dec-14 15:13 34.149904 -146.360328 226 40090ft 512kts
02-Dec-14 15:14 34.053358 -146.484849 226 40090ft 513kts
02-Dec-14 15:15 33.955702 -146.610058 225 40090ft 511kts
02-Dec-14 15:16 33.858420 -146.734495 226 40090ft 513kts
02-Dec-14 15:17 33.760556 -146.859319 226 40090ft 514kts
02-Dec-14 15:18 33.662509 -146.983921 226 40090ft 513kts
02-Dec-14 15:19 33.564534 -147.107992 225 40090ft 513kts
02-Dec-14 15:20 33.468199 -147.232138 226 40090ft 513kts
02-Dec-14 15:21 33.370001 -147.355889 225 40090ft 513kts
02-Dec-14 15:22 33.271157 -147.478214 225 40089ft 512kts
02-Dec-14 15:23 33.172487 -147.601064 227 40090ft 513kts
02-Dec-14 15:24 33.073726 -147.724114 225 40090ft 513kts
02-Dec-14 15:25 32.975592 -147.845891 224 40089ft 509kts
02-Dec-14 15:26 32.877744 -147.966792 226 40090ft 513kts
02-Dec-14 15:27 32.779515 -148.087770 225 40090ft 512kts
02-Dec-14 15:28 32.681407 -148.210299 226 40090ft 514kts
02-Dec-14 15:29 32.582791 -148.332842 226 40090ft 514kts
02-Dec-14 15:30 32.483325 -148.454144 225 40090ft 514kts
02-Dec-14 15:31 32.383271 -148.574498 225 40090ft 514kts
02-Dec-14 15:32 32.283798 -148.693317 225 40090ft 514kts
02-Dec-14 15:33 32.183669 -148.813994 224 40090ft 513kts
02-Dec-14 15:34 32.084195 -148.933877 225 40090ft 514kts
02-Dec-14 15:35 31.984298 -149.053726 224 40090ft 512kts
02-Dec-14 15:36 31.885239 -149.173276 225 40090ft 513kts
02-Dec-14 15:37 31.785857 -149.294087 224 40090ft 513kts
02-Dec-14 15:38 31.686792 -149.412079 224 40090ft 513kts
02-Dec-14 15:39 31.586378 -149.530614 225 40090ft 513kts
02-Dec-14 15:40 31.485539 -149.649481 225 40090ft 514kts
02-Dec-14 15:41 31.384529 -149.767406 224 40090ft 514kts
02-Dec-14 15:42 31.283294 -149.884539 224 40090ft 514kts
02-Dec-14 15:43 31.182235 -150.002445 225 40090ft 513kts
02-Dec-14 15:44 31.086015 -150.114803 224 40090ft 514kts
02-Dec-14 15:45 30.986084 -150.233448 225 40090ft 513kts
02-Dec-14 15:46 30.885447 -150.351104 225 40090ft 513kts
02-Dec-14 15:47 30.784074 -150.467835 225 40090ft 513kts
02-Dec-14 15:48 30.682661 -150.584283 224 40090ft 514kts
02-Dec-14 15:49 30.608350 -150.669542 216 40083ft 513kts
02-Dec-14 15:50 30.505333 -150.786945 219 40088ft 538kts
02-Dec-14 15:51 30.395443 -150.911713 219 40081ft 572kts
02-Dec-14 15:52 30.278602 -151.043725 220 40091ft 605kts
02-Dec-14 15:53 30.157380 -151.183149 220 40089ft 621kts
02-Dec-14 15:54 30.033836 -151.323556 219 40090ft 625kts
02-Dec-14 15:55 29.909430 -151.462725 219 40090ft 625kts
02-Dec-14 15:56 29.785411 -151.600950 219 40090ft 625kts
02-Dec-14 15:57 29.660798 -151.739671 219 40090ft 625kts
02-Dec-14 15:58 29.536093 -151.877971 219 40090ft 625kts
02-Dec-14 15:59 29.410858 -152.016061 219 40090ft 625kts
02-Dec-14 16:00 29.285222 -152.153243 219 40089ft 624kts
02-Dec-14 16:01 29.160887 -152.292092 219 40090ft 625kts
02-Dec-14 16:02 29.036894 -152.428707 218 40090ft 625kts
02-Dec-14 16:03 28.911077 -152.565413 218 40090ft 625kts
02-Dec-14 16:04 28.785504 -152.701467 218 40090ft 625kts
02-Dec-14 16:05 28.659592 -152.837731 219 40090ft 625kts
02-Dec-14 16:06 28.533305 -152.973944 218 40090ft 625kts
02-Dec-14 16:07 28.407032 -153.109375 218 40089ft 624kts
02-Dec-14 16:08 28.282310 -153.243877 218 40090ft 625kts
02-Dec-14 16:09 28.156581 -153.379101 218 40090ft 625kts
02-Dec-14 16:10 28.030266 -153.513375 218 40090ft 625kts
02-Dec-14 16:11 27.903467 -153.647537 218 40090ft 625kts
02-Dec-14 16:12 27.776755 -153.781371 218 40090ft 625kts
02-Dec-14 16:13 27.649539 -153.915353 218 40090ft 625kts
02-Dec-14 16:14 27.544742 -154.025365 218 40090ft 625kts
02-Dec-14 16:15 27.417799 -154.158753 218 40089ft 624kts
02-Dec-14 16:16 27.291297 -154.291875 218 40090ft 625kts
02-Dec-14 16:17 27.163739 -154.424499 217 40090ft 625kts
02-Dec-14 16:18 27.035966 -154.556662 217 40090ft 625kts
02-Dec-14 16:19 26.908538 -154.688257 217 40090ft 625kts
02-Dec-14 16:20 26.781606 -154.819000 217 40090ft 625kts
02-Dec-14 16:21 26.654087 -154.949898 217 40090ft 625kts
02-Dec-14 16:22 26.525857 -155.081089 217 40090ft 625kts
02-Dec-14 16:23 26.398607 -155.212477 217 40089ft 624kts
02-Dec-14 16:24 26.270532 -155.343098 217 40090ft 624kts
02-Dec-14 16:25 26.141984 -155.472869 217 40090ft 624kts
02-Dec-14 16:26 26.014593 -155.601467 217 40090ft 625kts
02-Dec-14 16:27 25.887218 -155.729884 217 40090ft 625kts
02-Dec-14 16:28 25.758280 -155.859424 217 40090ft 625kts
02-Dec-14 16:29 25.629823 -155.988047 217 40090ft 625kts
02-Dec-14 16:30 25.500974 -156.116778 217 40089ft 624kts
02-Dec-14 16:31 25.372866 -156.246207 217 40089ft 624kts
02-Dec-14 16:32 25.244651 -156.372873 216 40090ft 624kts
02-Dec-14 16:33 25.115094 -156.500562 216 40090ft 624kts
02-Dec-14 16:34 24.986045 -156.627902 216 40090ft 624kts
02-Dec-14 16:35 24.856502 -156.755197 216 40090ft 624kts
02-Dec-14 16:36 24.726811 -156.882151 216 40090ft 624kts
02-Dec-14 16:37 24.597223 -157.008692 216 40090ft 624kts
02-Dec-14 16:38 24.468593 -157.134296 216 40090ft 624kts
02-Dec-14 16:39 24.336260 -157.255029 194 40061ft 600kts
02-Dec-14 16:40 24.189056 -157.257291 152 40089ft 518kts
02-Dec-14 16:41 24.048503 -157.227854 151 40090ft 515kts
02-Dec-14 16:42 23.908013 -157.196320 151 40091ft 514kts
02-Dec-14 16:43 23.768433 -157.165034 151 40091ft 515kts
02-Dec-14 16:44 23.629267 -157.134248 151 40092ft 515kts
02-Dec-14 16:45 23.489192 -157.103395 151 40092ft 515kts
02-Dec-14 16:46 23.348499 -157.072906 151 40092ft 516kts
02-Dec-14 16:47 23.207895 -157.042595 151 40092ft 515kts
02-Dec-14 16:48 23.067745 -157.011717 151 39765ft 519kts
02-Dec-14 16:49 22.928135 -156.981229 151 37842ft 512kts
02-Dec-14 16:50 22.789898 -156.950891 151 35932ft 511kts
02-Dec-14 16:51 22.652784 -156.920943 150 34058ft 496kts
02-Dec-14 16:52 22.519910 -156.892482 150 32235ft 482kts
02-Dec-14 16:53 22.391311 -156.863097 149 30427ft 468kts
02-Dec-14 16:54 22.265289 -156.836236 153 28660ft 463kts
02-Dec-14 16:55 22.137849 -156.901852 220 26615ft 560kts
02-Dec-14 16:56 22.051814 -156.986237 213 25053ft 552kts
02-Dec-14 16:57 21.931402 -157.086189 208 22951ft 544kts
02-Dec-14 16:58 21.811022 -157.183193 210 20862ft 538kts
02-Dec-14 16:59 21.693658 -157.281661 210 18757ft 532kts
02-Dec-14 17:00 21.577706 -157.378508 211 16688ft 524kts
02-Dec-14 17:01 21.463760 -157.472257 212 14739ft 508kts
02-Dec-14 17:02 21.384285 -157.587521 252 12915ft 483kts
02-Dec-14 17:03 21.336834 -157.718764 250 11103ft 459kts
02-Dec-14 17:04 21.290653 -157.838180 250 10291ft 393kts
02-Dec-14 17:05 21.252245 -157.938210 249 8327ft 341kts
02-Dec-14 17:06 21.227864 -158.001999 249 7491ft 306kts
02-Dec-14 17:07 21.203772 -158.079340 260 6455ft 276kts
02-Dec-14 17:08 21.211123 -158.148644 320 5512ft 237kts
02-Dec-14 17:09 21.264654 -158.182194 18 4677ft 220kts
02-Dec-14 17:10 21.311078 -158.150213 55 3991ft 200kts
02-Dec-14 17:11 21.323901 -158.099756 87 2978ft 206kts
02-Dec-14 17:12 21.325247 -158.041261 89 1823ft 172kts
02-Dec-14 17:13 21.325299 -157.995702 89 1090ft 164kts
02-Dec-14 17:14 21.325272 -157.955058 90 286ft 165kts
02-Dec-14 17:15 21.325224 -157.929557 92 22ft 13kts
02-Dec-14 17:16 21.326832 -157.926104 59 22ft 11kts
02-Dec-14 17:17 21.327922 -157.922702 25 22ft 14kts
02-Dec-14 17:18 21.328856 -157.923235 319 22ft 0kts
02-Dec-14 17:19 21.328856 -157.923235 319 22ft 0kts
02-Dec-14 17:20 21.328856 -157.923235 319 22ft 0kts
02-Dec-14 17:21 21.328856 -157.923235 319 22ft 0kts
02-Dec-14 17:22 21.328856 -157.923235 319 22ft 0kts
02-Dec-14 17:23 21.328856 -157.923235 319 22ft 0kts
02-Dec-14 17:24 21.328856 -157.923235 319 22ft 0kts
02-Dec-14 17:25 21.328856 -157.923235 319 22ft 0kts
02-Dec-14 17:26 21.328856 -157.923235 319 22ft 0kts
02-Dec-14 17:27 21.328856 -157.923235 319 22ft 0kts
02-Dec-14 17:28 21.328856 -157.923235 319 22ft 0kts
02-Dec-14 17:29 21.328856 -157.923235 319 22ft 0kts

Navigation Log

Ident Type
1. KBFI Airport
2. SEA Navaid
3. ELMAA Fix
4. SEDAR Fix
5. ZANNG Fix
6. ZAGER Fix
7. ZINNO Fix
8. ZEMOM Fix
9. ZOULU Fix
10. ZIGIE Fix
11. MAGGI Fix
12. PHNL Airport